X  Sluiten METAR luchtvaart weer gegevens      EDDH Hamburg Helmut Schmidt Airport
Temperatuur
3°C Temperatuur
1°C Dauwpunt
87% Vochtigheid



Wind
9 MPH
14 KM/U
4 M/S
8 KTS



160°
ZZO
Huidig weer

Helder Helder
Luchtdruk 1003.05 (hPa) - 29.62 (inHg)
Zicht 6 (mijl) - 9.7 (km)
Vliegveld
Vliegveld code EDDH

Locatie : Hamburg Helmut Schmidt Airport
Afstand: 11 (mi)

Metar:
EDDH 250120Z AUTO 16008KT CAVOK 03/01 Q1003 NOSIG

Tijd: 25-02-2024 02:20 CET